Time;durP1;ratioP1;P1;durP2;ratioP2;P2;SDS_P1;SDS_P2;PMS_P1;PMS_P2;Temp;Humidity;BMP_temperature;BMP_pressure;BME280_temperature;BME280_humidity;BME280_pressure;Samples;Min_cycle;Max_cycle;Signal;HPM_P1;HPM_P2
2023/01/21 00:02:17;;;;;;;31.58;16.23;;;-1.50;99.90;;;;;;5065938;28;20064;-82
2023/01/21 00:04:43;;;;;;;27.23;12.77;;;-1.40;99.90;;;;;;5064363;28;20088;-82
2023/01/21 00:07:09;;;;;;;30.02;14.57;;;-1.50;99.90;;;;;;5059188;28;20035;-82
2023/01/21 00:09:34;;;;;;;32.75;14.23;;;-1.50;99.90;;;;;;5068024;28;20033;-82
2023/01/21 00:12:02;;;;;;;34.67;16.67;;;-1.50;99.90;;;;;;5067383;28;20028;-83
2023/01/21 00:14:30;;;;;;;49.03;23.95;;;-1.40;99.90;;;;;;5064238;28;20030;-81
2023/01/21 00:16:57;;;;;;;40.35;21.08;;;-1.40;99.90;;;;;;5067298;28;20029;-82
2023/01/21 00:19:23;;;;;;;40.97;19.80;;;-1.40;99.90;;;;;;5067726;28;20032;-83
2023/01/21 00:21:49;;;;;;;41.05;19.33;;;-1.40;99.90;;;;;;5064632;28;20029;-83
2023/01/21 00:24:15;;;;;;;36.70;18.58;;;-1.40;99.90;;;;;;5057707;28;20876;-83
2023/01/21 00:26:41;;;;;;;35.60;17.48;;;-1.50;99.90;;;;;;5062781;28;20104;-83
2023/01/21 00:29:07;;;;;;;34.65;16.67;;;-1.50;99.90;;;;;;5056437;28;20083;-82
2023/01/21 00:31:32;;;;;;;31.70;15.02;;;-1.50;99.90;;;;;;5048830;28;20062;-82
2023/01/21 00:33:58;;;;;;;29.05;14.95;;;-1.50;99.90;;;;;;5063216;28;20029;-82
2023/01/21 00:36:28;;;;;;;29.40;13.88;;;-1.60;99.90;;;;;;5064830;28;20393;-83
2023/01/21 00:38:58;;;;;;;28.63;13.90;;;-1.50;99.90;;;;;;5066586;28;20385;-83
2023/01/21 00:41:25;;;;;;;29.30;13.48;;;-1.50;99.90;;;;;;5046884;28;20024;-83
2023/01/21 00:43:51;;;;;;;25.63;12.93;;;-1.60;99.90;;;;;;5043796;28;20454;-83
2023/01/21 00:46:16;;;;;;;26.42;12.02;;;-1.60;99.90;;;;;;5064628;28;20037;-83
2023/01/21 00:48:42;;;;;;;27.02;13.40;;;-1.60;99.90;;;;;;5060782;28;20437;-84
2023/01/21 00:51:09;;;;;;;25.38;12.73;;;-1.60;99.90;;;;;;5065391;28;20445;-84
2023/01/21 00:53:37;;;;;;;23.80;11.23;;;-1.60;99.90;;;;;;5055192;28;20021;-83
2023/01/21 00:56:08;;;;;;;24.02;11.38;;;-1.70;99.90;;;;;;5061464;28;20071;-83
2023/01/21 00:58:34;;;;;;;23.05;10.18;;;-1.70;99.90;;;;;;5046209;28;20057;-83
2023/01/21 01:01:07;;;;;;;22.75;11.30;;;-1.70;99.90;;;;;;5063480;28;20020;-84
2023/01/21 01:03:34;;;;;;;24.13;10.38;;;-1.60;99.90;;;;;;5045078;28;20068;-83
2023/01/21 01:06:14;;;;;;;24.45;11.23;;;-1.70;99.90;;;;;;5060075;28;20036;-83
2023/01/21 01:08:40;;;;;;;24.45;11.60;;;-1.80;99.90;;;;;;5047092;28;20070;-83
2023/01/21 01:11:06;;;;;;;23.67;11.48;;;-1.70;99.90;;;;;;5048842;28;20056;-82
2023/01/21 01:13:34;;;;;;;25.55;12.73;;;-1.70;99.90;;;;;;5061604;28;20025;-84
2023/01/21 01:16:01;;;;;;;24.67;11.20;;;-1.80;99.90;;;;;;5043082;28;20439;-83
2023/01/21 01:18:28;;;;;;;31.85;15.52;;;-1.80;99.90;;;;;;5065235;28;20047;-84
2023/01/21 01:20:55;;;;;;;30.80;14.15;;;-1.80;99.90;;;;;;5045701;28;20028;-83
2023/01/21 01:23:20;;;;;;;31.90;14.77;;;-1.70;99.90;;;;;;5063312;28;20036;-84
2023/01/21 01:26:04;;;;;;;28.30;14.75;;;-1.70;99.90;;;;;;5060072;28;20041;-84
2023/01/21 01:28:30;;;;;;;26.27;12.65;;;-1.60;99.90;;;;;;5056667;28;20297;-83
2023/01/21 01:30:57;;;;;;;30.42;13.10;;;-1.70;99.90;;;;;;5049130;28;20025;-84
2023/01/21 01:33:25;;;;;;;25.50;11.93;;;-1.80;99.90;;;;;;5051264;28;20077;-84
2023/01/21 01:35:51;;;;;;;29.88;15.00;;;-1.80;99.90;;;;;;5060421;28;20029;-84
2023/01/21 01:38:19;;;;;;;28.55;12.80;;;-1.90;99.90;;;;;;5043235;28;20031;-83
2023/01/21 01:40:49;;;;;;;24.48;11.23;;;-1.90;99.90;;;;;;5049347;28;20163;-84
2023/01/21 01:43:55;;;;;;;25.95;12.02;;;-1.80;99.90;;;;;;5061232;28;20513;-84
2023/01/21 01:46:22;;;;;;;33.08;14.95;;;-1.90;99.90;;;;;;5047406;28;20048;-83
2023/01/21 01:49:04;;;;;;;32.75;15.73;;;-1.90;99.90;;;;;;5052368;28;20129;-84
2023/01/21 01:51:47;;;;;;;40.95;19.33;;;-1.80;99.90;;;;;;5064123;28;20079;-84
2023/01/21 01:54:22;;;;;;;34.30;15.25;;;-1.90;99.90;;;;;;5069102;28;20531;-84
2023/01/21 01:56:52;;;;;;;30.23;13.93;;;-1.90;99.90;;;;;;5071277;28;20056;-84
2023/01/21 01:59:18;;;;;;;28.80;12.90;;;-2.00;99.90;;;;;;5052158;28;20544;-83
2023/01/21 02:01:44;;;;;;;31.20;13.52;;;-2.00;99.90;;;;;;5050718;28;20054;-84
2023/01/21 02:04:15;;;;;;;25.40;12.38;;;-2.00;99.90;;;;;;5066412;28;20120;-83
2023/01/21 02:06:42;;;;;;;23.95;11.38;;;-2.00;99.90;;;;;;5052497;28;20652;-84
2023/01/21 02:09:07;;;;;;;21.02;9.65;;;-2.00;99.90;;;;;;5056139;28;20448;-84
2023/01/21 02:11:35;;;;;;;21.77;9.60;;;-2.00;99.90;;;;;;5056556;28;20028;-84
2023/01/21 02:14:02;;;;;;;20.45;8.82;;;-2.10;99.90;;;;;;5051295;28;20082;-84
2023/01/21 02:16:46;;;;;;;20.67;9.23;;;-2.10;99.90;;;;;;5067444;28;20078;-84
2023/01/21 02:19:41;;;;;;;27.55;11.93;;;-2.10;99.90;;;;;;5046927;28;20146;-85
2023/01/21 02:22:25;;;;;;;22.27;9.77;;;-2.00;99.90;;;;;;5051414;28;20036;-84
2023/01/21 02:25:18;;;;;;;24.55;10.57;;;-2.10;99.90;;;;;;5064252;28;20044;-84
2023/01/21 02:27:55;;;;;;;25.85;11.88;;;-2.10;99.90;;;;;;5062956;28;20020;-85
2023/01/21 02:30:31;;;;;;;25.90;11.43;;;-2.00;99.90;;;;;;5063084;28;20056;-84
2023/01/21 02:33:30;;;;;;;22.33;9.90;;;-2.10;99.90;;;;;;5069534;28;20036;-85
2023/01/21 02:36:16;;;;;;;25.70;9.32;;;-2.00;99.90;;;;;;5065217;28;20090;-82
2023/01/21 02:38:47;;;;;;;21.50;9.48;;;-2.20;99.90;;;;;;5063880;28;20100;-84
2023/01/21 02:41:27;;;;;;;21.90;9.43;;;-2.20;99.90;;;;;;5048904;28;20044;-84
2023/01/21 02:44:19;;;;;;;18.63;7.93;;;-2.20;99.90;;;;;;5051362;28;20032;-85
2023/01/21 02:46:55;;;;;;;18.98;8.57;;;-2.10;99.90;;;;;;5051573;28;20041;-84
2023/01/21 02:49:44;;;;;;;17.23;6.88;;;-2.10;99.90;;;;;;5049096;28;20052;-85
2023/01/21 02:52:17;;;;;;;24.08;8.80;;;-2.20;99.90;;;;;;5049109;28;20041;-85
2023/01/21 02:54:55;;;;;;;23.33;9.77;;;-2.20;99.90;;;;;;5065323;28;20040;-85
2023/01/21 02:57:47;;;;;;;24.80;10.50;;;-2.20;99.90;;;;;;5046471;28;20033;-85
2023/01/21 03:00:19;;;;;;;24.50;10.02;;;-2.10;99.90;;;;;;5058473;28;20033;-86
2023/01/21 03:03:04;;;;;;;23.75;10.25;;;-2.20;99.90;;;;;;5062889;28;20128;-85
2023/01/21 03:06:11;;;;;;;19.50;9.23;;;-2.20;99.90;;;;;;5061684;28;20037;-85
2023/01/21 03:08:43;;;;;;;24.75;9.35;;;-2.20;99.90;;;;;;5059423;28;20040;-86
2023/01/21 03:11:15;;;;;;;19.88;8.82;;;-2.20;99.90;;;;;;5048391;28;20079;-86
2023/01/21 03:16:56;;;;;;;18.67;8.07;;;-2.20;99.90;;;;;;5065060;28;20027;-84
2023/01/21 03:19:42;;;;;;;17.70;7.45;;;-2.30;99.90;;;;;;5062856;28;20040;-86
2023/01/21 03:22:13;;;;;;;18.58;6.60;;;-2.40;99.90;;;;;;5048685;28;20666;-86
2023/01/21 03:24:42;;;;;;;15.38;6.50;;;-2.30;99.90;;;;;;5052761;28;20021;-86
2023/01/21 03:27:10;;;;;;;15.63;6.03;;;-2.40;99.90;;;;;;5078960;28;20523;-85
2023/01/21 03:29:40;;;;;;;15.25;6.07;;;-2.40;99.90;;;;;;5066419;28;20032;-84
2023/01/21 03:32:11;;;;;;;18.35;5.97;;;-2.40;99.90;;;;;;5046771;28;20017;-86
2023/01/21 03:34:41;;;;;;;18.38;7.15;;;-2.40;99.90;;;;;;5067351;28;20028;-86
2023/01/21 03:37:10;;;;;;;16.95;6.22;;;-2.40;99.90;;;;;;5063997;28;20100;-86
2023/01/21 03:39:58;;;;;;;14.52;6.20;;;-2.50;99.90;;;;;;5065176;28;20055;-86
2023/01/21 03:42:24;;;;;;;15.18;6.65;;;-2.60;99.90;;;;;;5059651;28;20025;-83
2023/01/21 03:44:49;;;;;;;13.77;5.43;;;-2.60;99.90;;;;;;5064499;28;20051;-85
2023/01/21 03:47:35;;;;;;;16.40;6.38;;;-2.50;99.90;;;;;;5049599;28;20036;-85
2023/01/21 03:50:14;;;;;;;20.60;7.53;;;-2.50;99.90;;;;;;5046820;28;20033;-86
2023/01/21 03:52:42;;;;;;;16.88;6.85;;;-2.50;99.90;;;;;;5061782;28;20025;-86
2023/01/21 03:55:10;;;;;;;18.35;7.18;;;-2.60;99.90;;;;;;5061454;28;20064;-86
2023/01/21 03:57:36;;;;;;;19.58;7.03;;;-2.80;99.90;;;;;;5050617;28;20028;-85
2023/01/21 04:00:02;;;;;;;17.95;6.60;;;-2.70;99.90;;;;;;5062894;28;20031;-86
2023/01/21 04:02:30;;;;;;;15.50;6.18;;;-2.60;99.90;;;;;;5063613;28;20021;-86
2023/01/21 04:04:55;;;;;;;17.42;7.10;;;-2.70;99.90;;;;;;5065269;28;20039;-86
2023/01/21 04:07:21;;;;;;;17.48;6.40;;;-2.80;99.90;;;;;;5061237;28;20117;-83
2023/01/21 04:09:48;;;;;;;18.77;7.03;;;-2.90;99.90;;;;;;5045156;28;20066;-86
2023/01/21 04:12:15;;;;;;;16.65;6.47;;;-2.90;99.90;;;;;;5059002;28;20488;-87
2023/01/21 04:14:41;;;;;;;23.77;8.35;;;-2.80;99.90;;;;;;5047380;28;20075;-86
2023/01/21 04:17:07;;;;;;;21.15;8.10;;;-2.90;99.90;;;;;;5065174;28;20024;-85
2023/01/21 04:19:32;;;;;;;17.15;6.85;;;-2.80;99.90;;;;;;5049642;28;20078;-85
2023/01/21 04:21:58;;;;;;;21.48;8.38;;;-2.80;99.90;;;;;;5061778;28;20468;-85
2023/01/21 04:24:24;;;;;;;14.77;5.72;;;-2.90;99.90;;;;;;5063213;28;20025;-83
2023/01/21 04:26:50;;;;;;;16.88;5.60;;;-2.90;99.90;;;;;;5062605;28;20028;-84
2023/01/21 04:29:16;;;;;;;15.07;5.70;;;-3.00;99.90;;;;;;5047376;28;20037;-84
2023/01/21 04:31:42;;;;;;;16.98;6.55;;;-3.10;99.90;;;;;;5066057;28;20033;-85
2023/01/21 04:34:08;;;;;;;17.70;5.78;;;-3.10;99.90;;;;;;5065952;28;20444;-85
2023/01/21 04:36:33;;;;;;;14.50;5.88;;;-3.10;99.90;;;;;;5067921;28;20108;-85
2023/01/21 04:38:59;;;;;;;16.95;7.05;;;-2.90;99.90;;;;;;5049790;28;20033;-85
2023/01/21 04:41:25;;;;;;;20.33;6.43;;;-2.70;99.90;;;;;;5061775;28;20053;-85
2023/01/21 04:43:50;;;;;;;16.67;6.15;;;-2.90;99.90;;;;;;5063331;28;20074;-84
2023/01/21 04:46:16;;;;;;;16.70;5.45;;;-2.90;99.90;;;;;;5060640;28;20040;-85
2023/01/21 04:48:41;;;;;;;17.38;6.00;;;-3.00;99.90;;;;;;5061734;28;20059;-85
2023/01/21 04:51:07;;;;;;;14.38;4.90;;;-3.00;99.90;;;;;;5061570;28;20032;-85
2023/01/21 04:53:33;;;;;;;14.93;6.22;;;-2.90;99.90;;;;;;5050043;28;20025;-85
2023/01/21 04:55:58;;;;;;;14.18;5.88;;;-2.90;99.90;;;;;;5059073;28;20020;-85
2023/01/21 04:58:25;;;;;;;17.90;5.60;;;-2.90;99.90;;;;;;5042590;28;20477;-85
2023/01/21 05:00:53;;;;;;;16.33;6.38;;;-2.80;99.90;;;;;;5059746;28;20033;-84
2023/01/21 05:03:19;;;;;;;14.88;5.57;;;-2.90;99.90;;;;;;5059545;28;20020;-85
2023/01/21 05:05:44;;;;;;;17.23;6.78;;;-2.80;99.90;;;;;;5049803;28;20040;-86
2023/01/21 05:08:10;;;;;;;18.23;6.05;;;-2.90;99.90;;;;;;5061180;28;20059;-85
2023/01/21 05:10:36;;;;;;;14.88;4.80;;;-2.90;99.90;;;;;;5059249;28;20032;-85
2023/01/21 05:13:01;;;;;;;14.50;5.63;;;-2.90;99.90;;;;;;5059917;28;20036;-85
2023/01/21 05:15:27;;;;;;;15.30;6.13;;;-2.90;99.90;;;;;;5049885;28;20295;-83
2023/01/21 05:17:53;;;;;;;16.85;5.88;;;-3.00;99.90;;;;;;5073210;28;20024;-86
2023/01/21 05:20:19;;;;;;;14.63;5.38;;;-3.00;99.90;;;;;;5061670;28;20093;-85
2023/01/21 05:22:46;;;;;;;15.95;5.30;;;-3.00;99.90;;;;;;5059759;28;20049;-86
2023/01/21 05:25:12;;;;;;;24.15;10.05;;;-2.90;99.90;;;;;;5058979;28;20041;-86
2023/01/21 05:27:38;;;;;;;23.13;8.25;;;-2.80;99.90;;;;;;5058165;28;20037;-85
2023/01/21 05:30:04;;;;;;;23.85;10.13;;;-3.10;99.90;;;;;;5048547;28;20028;-84
2023/01/21 05:32:30;;;;;;;19.30;7.95;;;-2.90;99.90;;;;;;5063951;28;22106;-86
2023/01/21 05:34:56;;;;;;;20.40;8.27;;;-3.00;99.90;;;;;;5050164;28;20121;-85
2023/01/21 05:37:21;;;;;;;19.80;7.40;;;-3.00;99.90;;;;;;5062271;28;20035;-86
2023/01/21 05:39:47;;;;;;;19.02;7.15;;;-2.90;99.90;;;;;;5048636;28;20033;-85
2023/01/21 05:42:13;;;;;;;19.05;7.93;;;-2.90;99.90;;;;;;5044302;28;20029;-84
2023/01/21 05:44:38;;;;;;;22.67;9.02;;;-2.70;99.90;;;;;;5058427;28;20099;-86
2023/01/21 05:47:04;;;;;;;22.92;8.43;;;-2.80;99.90;;;;;;5064735;28;20485;-83
2023/01/21 05:49:30;;;;;;;19.80;7.38;;;-2.80;99.90;;;;;;5048692;28;20671;-85
2023/01/21 05:51:55;;;;;;;24.67;8.70;;;-2.80;99.90;;;;;;5045302;28;20037;-86
2023/01/21 05:54:21;;;;;;;23.88;10.05;;;-2.70;99.90;;;;;;5061233;28;20436;-86
2023/01/21 05:56:47;;;;;;;31.10;12.43;;;-2.70;99.90;;;;;;5066026;28;20481;-85
2023/01/21 05:59:12;;;;;;;29.38;12.13;;;-2.50;99.90;;;;;;5056532;28;20028;-84
2023/01/21 06:01:38;;;;;;;29.42;12.00;;;-2.50;99.90;;;;;;5055336;28;20029;-83
2023/01/21 06:04:04;;;;;;;28.02;11.73;;;-2.40;99.90;;;;;;5048656;28;20025;-85
2023/01/21 06:06:29;;;;;;;27.08;10.15;;;-2.50;99.90;;;;;;5060578;28;20041;-85
2023/01/21 06:08:55;;;;;;;32.47;11.75;;;-2.40;99.90;;;;;;5043849;28;20556;-84
2023/01/21 06:11:21;;;;;;;29.73;11.90;;;-2.30;99.90;;;;;;5058071;28;20536;-84
2023/01/21 06:13:46;;;;;;;27.63;10.15;;;-2.30;99.90;;;;;;5047241;28;20385;-84
2023/01/21 06:16:12;;;;;;;26.70;10.35;;;-2.30;99.90;;;;;;5062089;28;20024;-84
2023/01/21 06:18:38;;;;;;;29.05;10.90;;;-2.20;99.90;;;;;;5044143;28;20037;-84
2023/01/21 06:21:04;;;;;;;27.52;10.85;;;-2.20;99.90;;;;;;5055542;28;20036;-83
2023/01/21 06:23:30;;;;;;;32.63;12.10;;;-2.20;99.90;;;;;;5066495;28;20025;-84
2023/01/21 06:26:02;;;;;;;36.05;14.30;;;-2.10;99.90;;;;;;5049416;28;20067;-84
2023/01/21 06:28:28;;;;;;;48.72;19.40;;;-2.10;99.90;;;;;;5039924;28;20517;-84
2023/01/21 06:30:54;;;;;;;42.53;15.90;;;-2.00;99.90;;;;;;5045209;28;20078;-85
2023/01/21 06:33:20;;;;;;;39.42;14.98;;;-2.00;99.90;;;;;;5043671;28;20033;-85
2023/01/21 06:35:46;;;;;;;39.05;14.50;;;-2.00;99.90;;;;;;5047551;28;20033;-85
2023/01/21 06:38:12;;;;;;;37.55;14.15;;;-2.00;99.90;;;;;;5051491;28;20029;-84
2023/01/21 06:40:37;;;;;;;37.70;13.73;;;-1.90;99.90;;;;;;5065214;28;20021;-84
2023/01/21 06:43:03;;;;;;;28.60;11.13;;;-1.90;99.90;;;;;;5064971;28;20382;-85
2023/01/21 06:45:29;;;;;;;37.75;13.20;;;-1.90;99.90;;;;;;5059690;28;20086;-85
2023/01/21 06:47:54;;;;;;;35.83;12.60;;;-1.80;99.90;;;;;;5065182;28;20489;-85
2023/01/21 06:50:20;;;;;;;35.60;12.93;;;-1.80;99.90;;;;;;5060840;28;20036;-85
2023/01/21 06:52:47;;;;;;;33.53;12.13;;;-1.80;99.90;;;;;;5046131;28;20029;-84
2023/01/21 06:55:13;;;;;;;30.42;11.52;;;-1.80;99.90;;;;;;5057750;28;20037;-83
2023/01/21 06:57:39;;;;;;;37.38;13.38;;;-1.70;99.90;;;;;;5067978;28;20053;-85
2023/01/21 07:00:07;;;;;;;33.53;12.00;;;-1.70;99.90;;;;;;5066940;28;20056;-84
2023/01/21 07:02:33;;;;;;;31.30;11.05;;;-1.70;99.90;;;;;;5062337;28;20504;-84
2023/01/21 07:04:59;;;;;;;32.53;10.68;;;-1.70;99.90;;;;;;5069720;28;20032;-84
2023/01/21 07:07:25;;;;;;;28.50;10.07;;;-1.70;99.90;;;;;;5065659;28;20048;-84
2023/01/21 07:09:50;;;;;;;31.90;10.07;;;-1.60;99.90;;;;;;5067747;28;20025;-85
2023/01/21 07:12:16;;;;;;;32.65;10.70;;;-1.60;99.90;;;;;;5067156;28;20465;-84
2023/01/21 07:14:42;;;;;;;36.35;12.68;;;-1.60;99.90;;;;;;5065724;28;20028;-84
2023/01/21 07:17:08;;;;;;;35.67;13.13;;;-1.60;99.90;;;;;;5046660;28;20470;-84
2023/01/21 07:19:33;;;;;;;41.75;14.80;;;-1.60;99.90;;;;;;5068738;28;20020;-83
2023/01/21 07:21:59;;;;;;;41.67;14.35;;;-1.50;99.90;;;;;;5057450;28;20429;-83
2023/01/21 07:24:25;;;;;;;41.53;15.73;;;-1.50;99.90;;;;;;5045329;28;20028;-84
2023/01/21 07:26:51;;;;;;;44.38;15.60;;;-1.50;99.90;;;;;;5064327;28;20139;-80
2023/01/21 07:29:16;;;;;;;41.08;14.57;;;-1.50;99.90;;;;;;5063138;28;20440;-81
2023/01/21 07:31:42;;;;;;;45.15;16.33;;;-1.40;99.90;;;;;;5062372;28;20350;-82
2023/01/21 07:34:08;;;;;;;41.85;14.95;;;-1.40;99.90;;;;;;5067333;28;20029;-83
2023/01/21 07:36:33;;;;;;;41.15;13.35;;;-1.40;99.90;;;;;;5061762;28;20027;-83
2023/01/21 07:38:59;;;;;;;44.47;16.20;;;-1.40;99.90;;;;;;5059887;28;20065;-83
2023/01/21 07:41:25;;;;;;;38.63;14.35;;;-1.40;99.90;;;;;;5061383;28;20036;-81
2023/01/21 07:43:50;;;;;;;45.72;16.80;;;-1.40;99.90;;;;;;5065552;28;20028;-81
2023/01/21 07:46:20;;;;;;;40.67;14.65;;;-1.30;99.90;;;;;;5048015;28;20044;-83
2023/01/21 07:48:50;;;;;;;39.92;13.80;;;-1.30;99.90;;;;;;5057898;28;20337;-83
2023/01/21 07:51:19;;;;;;;34.95;12.90;;;-1.30;99.90;;;;;;5066109;28;20127;-82
2023/01/21 07:53:44;;;;;;;37.45;13.15;;;-1.30;99.90;;;;;;5066252;28;20043;-81
2023/01/21 07:56:10;;;;;;;44.28;16.02;;;-1.30;99.90;;;;;;5062681;28;20040;-82
2023/01/21 07:58:37;;;;;;;37.78;14.68;;;-1.30;99.90;;;;;;5048774;28;20522;-82
2023/01/21 08:01:04;;;;;;;39.47;14.43;;;-1.20;99.90;;;;;;5064292;28;20123;-81
2023/01/21 08:03:30;;;;;;;38.00;14.98;;;-1.20;99.90;;;;;;5060597;28;20040;-82
2023/01/21 08:05:55;;;;;;;35.03;14.15;;;-1.10;99.90;;;;;;5062359;28;20041;-82
2023/01/21 08:08:21;;;;;;;38.67;13.98;;;-1.20;99.90;;;;;;5059376;28;20095;-82
2023/01/21 08:10:52;;;;;;;41.42;16.42;;;-1.10;99.90;;;;;;5067331;28;20035;-83
2023/01/21 08:13:17;;;;;;;32.28;12.13;;;-1.10;99.90;;;;;;5060853;28;20040;-82
2023/01/21 08:15:43;;;;;;;31.27;12.63;;;-1.00;99.90;;;;;;5044960;28;20029;-81
2023/01/21 08:18:09;;;;;;;32.38;13.38;;;-1.10;99.90;;;;;;5056495;28;20169;-82
2023/01/21 08:20:35;;;;;;;35.13;13.25;;;-1.00;99.90;;;;;;5065945;28;20545;-82
2023/01/21 08:23:00;;;;;;;31.73;11.80;;;-1.00;99.90;;;;;;5065119;28;20083;-81
2023/01/21 08:25:26;;;;;;;30.40;10.75;;;-1.00;99.90;;;;;;5047505;28;20427;-81
2023/01/21 08:27:52;;;;;;;33.75;11.77;;;-0.90;99.90;;;;;;5058683;28;20048;-83
2023/01/21 08:30:18;;;;;;;27.27;10.00;;;-0.90;99.90;;;;;;5061674;28;20053;-81
2023/01/21 08:32:44;;;;;;;27.48;10.48;;;-0.90;99.90;;;;;;5064524;28;20024;-82
2023/01/21 08:35:10;;;;;;;24.60;9.25;;;-0.80;99.90;;;;;;5066367;28;20024;-82
2023/01/21 08:37:38;;;;;;;28.90;10.63;;;-0.80;99.90;;;;;;5065796;28;20115;-82
2023/01/21 08:40:05;;;;;;;40.70;15.95;;;-0.80;99.90;;;;;;5047476;28;20496;-83
2023/01/21 08:42:30;;;;;;;48.60;18.75;;;-0.80;99.90;;;;;;5066456;28;20028;-82
2023/01/21 08:44:56;;;;;;;47.95;19.35;;;-0.80;99.90;;;;;;5060668;28;20033;-83
2023/01/21 08:47:22;;;;;;;50.33;19.90;;;-0.80;99.90;;;;;;5041319;28;20033;-82
2023/01/21 08:49:47;;;;;;;50.13;20.42;;;-0.70;99.90;;;;;;5048228;28;20117;-80
2023/01/21 08:52:15;;;;;;;43.08;17.58;;;-0.70;99.90;;;;;;5048117;28;20035;-81
2023/01/21 08:54:41;;;;;;;53.38;21.00;;;-0.70;99.90;;;;;;5053662;28;20063;-82
2023/01/21 08:57:07;;;;;;;50.33;19.27;;;-0.70;99.90;;;;;;5064029;28;20517;-82
2023/01/21 08:59:33;;;;;;;62.30;24.63;;;-0.70;99.90;;;;;;5058541;28;20115;-83
2023/01/21 09:01:58;;;;;;;59.25;25.33;;;-0.70;99.90;;;;;;5046486;28;20127;-81
2023/01/21 09:04:24;;;;;;;68.28;29.48;;;-0.60;99.90;;;;;;5064214;28;20029;-82
2023/01/21 09:06:50;;;;;;;73.13;29.08;;;-0.60;99.90;;;;;;5065254;28;20037;-83
2023/01/21 09:09:15;;;;;;;71.57;29.67;;;-0.60;99.90;;;;;;5036940;28;20039;-81
2023/01/21 09:11:42;;;;;;;62.45;26.00;;;-0.60;99.90;;;;;;5064195;28;20389;-82
2023/01/21 09:14:07;;;;;;;57.58;22.92;;;-0.50;99.90;;;;;;5060575;28;20481;-81
2023/01/21 09:16:35;;;;;;;65.00;26.23;;;-0.50;99.90;;;;;;5049535;28;20053;-81
2023/01/21 09:19:01;;;;;;;63.08;25.35;;;-0.50;99.90;;;;;;5063462;28;20036;-81
2023/01/21 09:21:28;;;;;;;46.83;21.02;;;-0.40;99.90;;;;;;5064056;28;20040;-81
2023/01/21 09:23:57;;;;;;;46.45;19.48;;;-0.40;99.90;;;;;;5059581;28;20029;-80
2023/01/21 09:26:23;;;;;;;39.88;16.85;;;-0.30;99.90;;;;;;5039269;28;20416;-80
2023/01/21 09:29:00;;;;;;;40.55;17.35;;;-0.30;99.90;;;;;;5060225;28;20025;-79
2023/01/21 09:31:28;;;;;;;32.70;13.63;;;-0.20;99.90;;;;;;5066377;28;20485;-80
2023/01/21 09:33:57;;;;;;;31.77;13.23;;;-0.20;99.90;;;;;;5064912;28;20027;-80
2023/01/21 09:36:25;;;;;;;33.35;13.07;;;-0.20;99.90;;;;;;5044280;28;20497;-79
2023/01/21 09:38:51;;;;;;;29.77;12.30;;;-0.10;99.90;;;;;;5059584;28;20043;-80
2023/01/21 09:41:29;;;;;;;25.38;10.75;;;-0.10;99.90;;;;;;5046458;28;20060;-81
2023/01/21 09:43:58;;;;;;;27.25;11.40;;;-0.10;99.90;;;;;;5040321;28;20078;-81
2023/01/21 09:46:58;;;;;;;25.93;11.17;;;0.00;99.90;;;;;;5037572;28;21596;-80
2023/01/21 09:49:29;;;;;;;;;;;0.00;99.90;;;;;;5038627;28;20513;-80
2023/01/21 09:52:07;;;;;;;49.22;20.98;;;0.00;99.90;;;;;;5036522;28;20014;-80
2023/01/21 09:54:36;;;;;;;60.60;24.75;;;0.00;99.90;;;;;;5054790;28;20033;-81
2023/01/21 09:57:22;;;;;;;52.17;20.58;;;-0.10;99.90;;;;;;5053714;28;20040;-80
2023/01/21 09:59:59;;;;;;;50.60;21.58;;;0.00;99.90;;;;;;5054532;28;20043;-81
2023/01/21 10:02:32;;;;;;;49.03;19.23;;;0.10;99.90;;;;;;5036124;28;20028;-81
2023/01/21 10:05:09;;;;;;;59.63;25.00;;;0.10;99.90;;;;;;5037042;28;20066;-81
2023/01/21 10:08:03;;;;;;;48.00;21.33;;;0.10;99.90;;;;;;5055674;28;20059;-81
2023/01/21 10:11:07;;;;;;;50.88;21.95;;;0.20;99.90;;;;;;5060506;28;20036;-80
2023/01/21 10:13:59;;;;;;;45.95;18.60;;;0.20;99.90;;;;;;4985665;28;20049;-80
2023/01/21 10:16:25;;;;;;;38.03;16.08;;;0.30;99.90;;;;;;4980180;28;20497;-80
2023/01/21 10:18:53;;;;;;;44.42;17.70;;;0.30;99.90;;;;;;4987926;28;20045;-81
2023/01/21 10:21:27;;;;;;;41.63;17.40;;;0.30;99.90;;;;;;4980423;28;20034;-81
2023/01/21 10:23:59;;;;;;;39.45;16.20;;;0.30;99.90;;;;;;4970426;28;20661;-79
2023/01/21 10:26:28;;;;;;;56.28;25.85;;;0.40;99.90;;;;;;4995205;28;20645;-80
2023/01/21 10:28:55;;;;;;;59.00;25.17;;;0.30;99.90;;;;;;4980060;28;20076;-80
2023/01/21 10:31:26;;;;;;;54.53;23.30;;;0.40;99.90;;;;;;4995519;28;20458;-81
2023/01/21 10:33:52;;;;;;;52.10;21.75;;;0.40;99.90;;;;;;4976404;28;20036;-80
2023/01/21 10:36:45;;;;;;;58.03;25.10;;;0.50;99.90;;;;;;4978473;28;20490;-81
2023/01/21 10:39:28;;;;;;;60.10;26.05;;;0.40;99.90;;;;;;4986821;28;20411;-80
2023/01/21 10:42:31;;;;;;;49.33;20.75;;;0.40;99.90;;;;;;4976604;28;20140;-79
2023/01/21 10:45:22;;;;;;;44.65;19.52;;;0.60;99.90;;;;;;5038963;28;20458;-80
2023/01/21 10:47:59;;;;;;;38.65;16.80;;;0.60;99.90;;;;;;5055593;28;20108;-79
2023/01/21 10:50:55;;;;;;;34.03;15.80;;;0.70;99.90;;;;;;5055698;28;20045;-80
2023/01/21 10:53:43;;;;;;;44.90;17.25;;;0.90;99.90;;;;;;4957516;28;20525;-79
2023/01/21 10:56:33;;;;;;;41.42;18.83;;;0.90;99.90;;;;;;4975218;28;20117;-79
2023/01/21 10:59:07;;;;;;;47.67;20.65;;;1.00;99.90;;;;;;4958214;28;20565;-80
2023/01/21 11:01:37;;;;;;;42.38;17.45;;;1.00;99.90;;;;;;4948986;28;20076;-80
2023/01/21 11:04:13;;;;;;;46.30;19.95;;;1.10;99.90;;;;;;4956701;28;20833;-79
2023/01/21 11:06:39;;;;;;;33.40;15.70;;;1.20;99.90;;;;;;4942649;28;20050;-80
2023/01/21 11:09:09;;;;;;;43.80;18.35;;;1.20;99.90;;;;;;4975700;28;20038;-80
2023/01/21 11:11:37;;;;;;;42.47;19.33;;;1.00;99.90;;;;;;4970777;28;20117;-80
2023/01/21 11:14:02;;;;;;;51.72;22.60;;;1.00;99.90;;;;;;4963874;28;20125;-79
2023/01/21 11:16:48;;;;;;;41.25;18.02;;;1.00;99.90;;;;;;4987141;28;20030;-80
2023/01/21 11:19:22;;;;;;;34.70;16.27;;;1.10;99.90;;;;;;4971261;28;20034;-80
2023/01/21 11:22:03;;;;;;;41.20;18.08;;;1.20;99.90;;;;;;4985607;28;20540;-80
2023/01/21 11:24:31;;;;;;;52.83;23.15;;;1.20;99.90;;;;;;4986567;28;20041;-80
2023/01/21 11:27:00;;;;;;;52.33;23.83;;;1.00;99.90;;;;;;4972335;28;20063;-79
2023/01/21 11:29:36;;;;;;;49.50;21.70;;;1.10;99.90;;;;;;4999350;28;20033;-79
2023/01/21 11:32:13;;;;;;;41.03;18.30;;;1.20;99.90;;;;;;5066606;28;20020;-79
2023/01/21 11:34:44;;;;;;;36.00;15.38;;;1.30;99.90;;;;;;5049016;28;20036;-80
2023/01/21 11:37:23;;;;;;;30.30;14.15;;;1.30;99.90;;;;;;5047179;28;20531;-79
2023/01/21 11:40:11;;;;;;;34.42;14.38;;;1.30;99.90;;;;;;5059735;28;20048;-79
2023/01/21 11:42:48;;;;;;;33.17;14.45;;;1.40;99.90;;;;;;5044445;28;20116;-79
2023/01/21 11:45:30;;;;;;;38.25;16.95;;;1.40;99.90;;;;;;5055283;28;20072;-80
2023/01/21 11:47:56;;;;;;;29.58;13.57;;;1.30;99.90;;;;;;5063997;28;20033;-80
2023/01/21 11:50:33;;;;;;;27.77;13.20;;;1.40;99.90;;;;;;5065067;28;20377;-80
2023/01/21 11:53:05;;;;;;;29.10;12.48;;;1.40;99.90;;;;;;5064982;28;20381;-80
2023/01/21 11:55:31;;;;;;;23.65;10.20;;;1.60;99.90;;;;;;5041942;28;20131;-80
2023/01/21 11:57:57;;;;;;;30.77;13.77;;;1.70;99.90;;;;;;5055732;28;20025;-80
2023/01/21 12:00:26;;;;;;;25.98;11.70;;;1.70;99.90;;;;;;5063061;28;20087;-80
2023/01/21 12:03:01;;;;;;;30.38;14.02;;;1.80;99.90;;;;;;5047988;28;20028;-80
2023/01/21 12:05:34;;;;;;;28.00;12.57;;;1.70;99.90;;;;;;5063010;28;20136;-80
2023/01/21 12:08:05;;;;;;;30.83;13.98;;;1.70;99.90;;;;;;5060783;28;20039;-80
2023/01/21 12:10:40;;;;;;;38.63;16.73;;;1.70;99.90;;;;;;5045178;28;20033;-80
2023/01/21 12:13:33;;;;;;;35.55;16.17;;;1.70;99.90;;;;;;5055270;28;20477;-80
2023/01/21 12:16:19;;;;;;;42.08;17.63;;;1.90;99.90;;;;;;5024472;28;20823;-81
2023/01/21 12:19:02;;;;;;;40.85;18.85;;;2.00;99.90;;;;;;5045433;28;20040;-80
2023/01/21 12:21:58;;;;;;;37.33;17.58;;;2.10;99.90;;;;;;5048276;28;20587;-80
2023/01/21 12:24:47;;;;;;;32.45;15.10;;;2.10;99.90;;;;;;5020330;28;20052;-80
2023/01/21 12:27:15;;;;;;;35.67;16.15;;;2.10;99.90;;;;;;5035299;28;20052;-81
2023/01/21 12:29:44;;;;;;;41.17;18.90;;;2.10;99.90;;;;;;5029309;28;20037;-80
2023/01/21 12:32:32;;;;;;;37.53;17.13;;;2.00;99.90;;;;;;5046564;28;20044;-80
2023/01/21 12:35:16;;;;;;;35.20;16.13;;;2.10;99.90;;;;;;5046671;28;20036;-80
2023/01/21 12:37:48;;;;;;;30.75;14.15;;;2.10;99.90;;;;;;5035608;28;20028;-81
2023/01/21 12:40:26;;;;;;;25.80;11.73;;;2.20;99.90;;;;;;5043010;28;20036;-80
2023/01/21 12:42:55;;;;;;;26.83;12.75;;;2.20;99.90;;;;;;5046824;28;20113;-79
2023/01/21 12:45:37;;;;;;;24.02;11.75;;;2.30;99.90;;;;;;5047143;28;20037;-80
2023/01/21 12:48:12;;;;;;;24.13;11.13;;;2.40;99.90;;;;;;5033914;28;20033;-80
2023/01/21 12:51:01;;;;;;;32.33;16.25;;;2.60;99.90;;;;;;5044519;28;20102;-80
2023/01/21 12:53:49;;;;;;;28.58;13.77;;;2.40;99.90;;;;;;5041511;28;20091;-80
2023/01/21 12:56:26;;;;;;;30.85;14.95;;;2.40;99.90;;;;;;5045761;28;20063;-81